sensor_id;sensor_type;location;lat;lon;timestamp;pressure;altitude;pressure_sealevel;temperature;humidity
82379;BME280;72008;48.140;11.614;2024-01-16T00:00:58;94715.41;;;-1.61;67.12
82379;BME280;72008;48.140;11.614;2024-01-16T00:01:58;94705.63;;;-1.52;68.43
82379;BME280;72008;48.140;11.614;2024-01-16T00:02:58;94712.88;;;-1.28;69.04
82379;BME280;72008;48.140;11.614;2024-01-16T00:03:59;94711.66;;;-1.36;67.21
82379;BME280;72008;48.140;11.614;2024-01-16T00:04:59;94713.22;;;-1.35;68.43
82379;BME280;72008;48.140;11.614;2024-01-16T00:06:01;94712.72;;;-1.37;67.80
82379;BME280;72008;48.140;11.614;2024-01-16T00:07:01;94713.69;;;-1.52;67.95
82379;BME280;72008;48.140;11.614;2024-01-16T00:08:02;94726.25;;;-1.47;67.11
82379;BME280;72008;48.140;11.614;2024-01-16T00:09:02;94718.53;;;-1.54;67.65
82379;BME280;72008;48.140;11.614;2024-01-16T00:10:03;94718.47;;;-1.49;67.40
82379;BME280;72008;48.140;11.614;2024-01-16T00:11:03;94714.72;;;-1.48;67.30
82379;BME280;72008;48.140;11.614;2024-01-16T00:12:04;94725.56;;;-1.58;67.00
82379;BME280;72008;48.140;11.614;2024-01-16T00:13:05;94720.50;;;-1.59;67.20
82379;BME280;72008;48.140;11.614;2024-01-16T00:14:05;94721.75;;;-1.52;67.97
82379;BME280;72008;48.140;11.614;2024-01-16T00:15:06;94721.78;;;-1.57;66.63
82379;BME280;72008;48.140;11.614;2024-01-16T00:16:06;94729.22;;;-1.49;66.38
82379;BME280;72008;48.140;11.614;2024-01-16T00:17:07;94726.03;;;-1.27;67.18
82379;BME280;72008;48.140;11.614;2024-01-16T00:18:07;94726.44;;;-1.39;67.02
82379;BME280;72008;48.140;11.614;2024-01-16T00:19:08;94724.53;;;-1.38;67.18
82379;BME280;72008;48.140;11.614;2024-01-16T00:20:09;94736.34;;;-1.63;66.41
82379;BME280;72008;48.140;11.614;2024-01-16T00:21:09;94734.13;;;-1.56;66.98
82379;BME280;72008;48.140;11.614;2024-01-16T00:22:10;94728.94;;;-1.47;66.48
82379;BME280;72008;48.140;11.614;2024-01-16T00:23:10;94738.00;;;-1.43;66.66
82379;BME280;72008;48.140;11.614;2024-01-16T00:24:10;94730.72;;;-1.38;67.02
82379;BME280;72008;48.140;11.614;2024-01-16T00:25:11;94732.63;;;-1.19;66.78
82379;BME280;72008;48.140;11.614;2024-01-16T00:26:24;94735.34;;;-1.43;66.82
82379;BME280;72008;48.140;11.614;2024-01-16T00:27:25;94733.44;;;-1.43;66.24
82379;BME280;72008;48.140;11.614;2024-01-16T00:28:25;94738.53;;;-1.41;67.66
82379;BME280;72008;48.140;11.614;2024-01-16T00:29:25;94738.13;;;-1.53;66.96
82379;BME280;72008;48.140;11.614;2024-01-16T00:30:26;94740.16;;;-1.69;66.92
82379;BME280;72008;48.140;11.614;2024-01-16T00:31:26;94736.78;;;-1.51;67.39
82379;BME280;72008;48.140;11.614;2024-01-16T00:32:27;94737.03;;;-1.28;66.71
82379;BME280;72008;48.140;11.614;2024-01-16T00:33:27;94733.38;;;-1.38;66.40
82379;BME280;72008;48.140;11.614;2024-01-16T00:34:27;94729.91;;;-1.14;67.50
82379;BME280;72008;48.140;11.614;2024-01-16T00:35:28;94730.13;;;-1.34;66.56
82379;BME280;72008;48.140;11.614;2024-01-16T00:36:28;94729.97;;;-1.43;66.55
82379;BME280;72008;48.140;11.614;2024-01-16T00:37:29;94734.31;;;-1.47;66.90
82379;BME280;72008;48.140;11.614;2024-01-16T00:38:32;94738.13;;;-1.53;66.45
82379;BME280;72008;48.140;11.614;2024-01-16T00:39:33;94745.94;;;-1.57;67.50
82379;BME280;72008;48.140;11.614;2024-01-16T00:40:33;94747.56;;;-1.32;67.39
82379;BME280;72008;48.140;11.614;2024-01-16T00:41:34;94747.38;;;-1.41;66.88
82379;BME280;72008;48.140;11.614;2024-01-16T00:42:34;94743.50;;;-1.29;66.73
82379;BME280;72008;48.140;11.614;2024-01-16T00:43:35;94745.03;;;-1.23;66.94
82379;BME280;72008;48.140;11.614;2024-01-16T00:44:35;94755.16;;;-1.15;67.57
82379;BME280;72008;48.140;11.614;2024-01-16T00:45:37;94752.13;;;-1.32;66.75
82379;BME280;72008;48.140;11.614;2024-01-16T00:46:40;94750.88;;;-1.40;66.67
82379;BME280;72008;48.140;11.614;2024-01-16T00:47:41;94757.28;;;-1.36;66.99
82379;BME280;72008;48.140;11.614;2024-01-16T00:48:41;94755.84;;;-1.28;66.98
82379;BME280;72008;48.140;11.614;2024-01-16T00:49:41;94753.91;;;-1.47;66.97
82379;BME280;72008;48.140;11.614;2024-01-16T00:50:42;94757.88;;;-1.68;66.23
82379;BME280;72008;48.140;11.614;2024-01-16T00:51:42;94757.63;;;-1.72;67.35
82379;BME280;72008;48.140;11.614;2024-01-16T00:52:43;94753.88;;;-1.71;67.06
82379;BME280;72008;48.140;11.614;2024-01-16T00:53:43;94758.78;;;-1.54;67.03
82379;BME280;72008;48.140;11.614;2024-01-16T00:54:44;94764.34;;;-1.45;66.95
82379;BME280;72008;48.140;11.614;2024-01-16T00:55:45;94763.66;;;-1.56;66.59
82379;BME280;72008;48.140;11.614;2024-01-16T00:56:45;94763.69;;;-1.61;66.43
82379;BME280;72008;48.140;11.614;2024-01-16T00:57:45;94762.56;;;-1.55;66.80
82379;BME280;72008;48.140;11.614;2024-01-16T00:58:46;94759.59;;;-1.53;67.12
82379;BME280;72008;48.140;11.614;2024-01-16T00:59:46;94766.34;;;-1.56;66.17
82379;BME280;72008;48.140;11.614;2024-01-16T01:00:47;94761.91;;;-1.42;67.89
82379;BME280;72008;48.140;11.614;2024-01-16T01:01:47;94763.25;;;-1.44;66.06
82379;BME280;72008;48.140;11.614;2024-01-16T01:02:47;94763.88;;;-1.52;67.16
82379;BME280;72008;48.140;11.614;2024-01-16T01:03:48;94761.91;;;-1.42;66.60
82379;BME280;72008;48.140;11.614;2024-01-16T01:04:48;94771.13;;;-1.53;66.28
82379;BME280;72008;48.140;11.614;2024-01-16T01:05:49;94774.47;;;-1.66;66.47
82379;BME280;72008;48.140;11.614;2024-01-16T01:06:49;94773.72;;;-1.72;66.81
82379;BME280;72008;48.140;11.614;2024-01-16T01:07:50;94767.22;;;-1.66;67.31
82379;BME280;72008;48.140;11.614;2024-01-16T01:08:50;94769.81;;;-1.55;66.85
82379;BME280;72008;48.140;11.614;2024-01-16T01:09:50;94770.41;;;-1.34;66.68
82379;BME280;72008;48.140;11.614;2024-01-16T01:10:51;94783.38;;;-1.42;66.08
82379;BME280;72008;48.140;11.614;2024-01-16T01:11:51;94783.41;;;-1.47;66.67
82379;BME280;72008;48.140;11.614;2024-01-16T01:12:52;94775.59;;;-1.43;66.61
82379;BME280;72008;48.140;11.614;2024-01-16T01:13:52;94774.50;;;-1.42;66.34
82379;BME280;72008;48.140;11.614;2024-01-16T01:14:52;94776.97;;;-1.46;67.11
82379;BME280;72008;48.140;11.614;2024-01-16T01:15:53;94777.31;;;-1.52;66.28
82379;BME280;72008;48.140;11.614;2024-01-16T01:16:53;94778.63;;;-1.50;66.37
82379;BME280;72008;48.140;11.614;2024-01-16T01:17:54;94776.41;;;-1.72;66.97
82379;BME280;72008;48.140;11.614;2024-01-16T01:18:54;94776.09;;;-1.65;66.65
82379;BME280;72008;48.140;11.614;2024-01-16T01:19:54;94780.31;;;-1.59;65.86
82379;BME280;72008;48.140;11.614;2024-01-16T01:20:55;94777.53;;;-1.78;66.21
82379;BME280;72008;48.140;11.614;2024-01-16T01:21:55;94776.78;;;-1.84;66.64
82379;BME280;72008;48.140;11.614;2024-01-16T01:22:56;94783.88;;;-1.69;66.49
82379;BME280;72008;48.140;11.614;2024-01-16T01:23:56;94783.56;;;-1.62;65.96
82379;BME280;72008;48.140;11.614;2024-01-16T01:24:56;94780.75;;;-1.76;65.84
82379;BME280;72008;48.140;11.614;2024-01-16T01:25:57;94782.78;;;-1.63;66.14
82379;BME280;72008;48.140;11.614;2024-01-16T01:26:57;94783.00;;;-1.59;65.79
82379;BME280;72008;48.140;11.614;2024-01-16T01:27:58;94779.56;;;-1.65;65.92
82379;BME280;72008;48.140;11.614;2024-01-16T01:28:58;94785.13;;;-1.56;66.21
82379;BME280;72008;48.140;11.614;2024-01-16T01:29:58;94782.06;;;-1.73;66.12
82379;BME280;72008;48.140;11.614;2024-01-16T01:30:59;94798.13;;;-1.68;65.90
82379;BME280;72008;48.140;11.614;2024-01-16T01:31:59;94790.00;;;-1.63;66.39
82379;BME280;72008;48.140;11.614;2024-01-16T01:33:00;94789.59;;;-1.46;66.62
82379;BME280;72008;48.140;11.614;2024-01-16T01:34:00;94790.44;;;-1.51;66.04
82379;BME280;72008;48.140;11.614;2024-01-16T01:35:00;94797.63;;;-1.46;65.94
82379;BME280;72008;48.140;11.614;2024-01-16T01:36:01;94800.78;;;-1.39;65.14
82379;BME280;72008;48.140;11.614;2024-01-16T01:37:01;94799.59;;;-1.57;66.33
82379;BME280;72008;48.140;11.614;2024-01-16T01:38:02;94808.53;;;-1.62;66.44
82379;BME280;72008;48.140;11.614;2024-01-16T01:39:02;94799.56;;;-1.52;66.22
82379;BME280;72008;48.140;11.614;2024-01-16T01:40:03;94808.41;;;-1.51;66.32
82379;BME280;72008;48.140;11.614;2024-01-16T01:41:03;94805.91;;;-1.72;66.17
82379;BME280;72008;48.140;11.614;2024-01-16T01:42:04;94812.34;;;-1.68;66.36
82379;BME280;72008;48.140;11.614;2024-01-16T01:43:21;94810.91;;;-1.60;66.53
82379;BME280;72008;48.140;11.614;2024-01-16T01:44:21;94817.03;;;-1.54;66.68
82379;BME280;72008;48.140;11.614;2024-01-16T01:45:22;94817.28;;;-1.51;66.43
82379;BME280;72008;48.140;11.614;2024-01-16T01:46:22;94812.97;;;-1.52;66.28
82379;BME280;72008;48.140;11.614;2024-01-16T01:47:24;94810.69;;;-1.64;66.24
82379;BME280;72008;48.140;11.614;2024-01-16T01:48:24;94818.69;;;-1.58;66.79
82379;BME280;72008;48.140;11.614;2024-01-16T01:49:26;94821.03;;;-1.52;66.95
82379;BME280;72008;48.140;11.614;2024-01-16T01:50:27;94819.94;;;-1.22;67.10
82379;BME280;72008;48.140;11.614;2024-01-16T01:51:28;94829.41;;;-1.29;66.14
82379;BME280;72008;48.140;11.614;2024-01-16T01:52:31;94825.34;;;-1.51;65.53
82379;BME280;72008;48.140;11.614;2024-01-16T01:53:33;94822.03;;;-1.43;66.38
82379;BME280;72008;48.140;11.614;2024-01-16T01:54:36;94829.00;;;-1.42;65.86
82379;BME280;72008;48.140;11.614;2024-01-16T01:55:37;94823.19;;;-1.54;65.94
82379;BME280;72008;48.140;11.614;2024-01-16T01:56:37;94823.00;;;-1.33;66.23
82379;BME280;72008;48.140;11.614;2024-01-16T01:57:39;94825.59;;;-1.23;66.23
82379;BME280;72008;48.140;11.614;2024-01-16T01:58:41;94823.94;;;-1.48;64.92
82379;BME280;72008;48.140;11.614;2024-01-16T01:59:43;94824.44;;;-1.70;65.86
82379;BME280;72008;48.140;11.614;2024-01-16T02:00:44;94827.31;;;-1.62;66.28
82379;BME280;72008;48.140;11.614;2024-01-16T02:01:50;94827.53;;;-1.58;65.81
82379;BME280;72008;48.140;11.614;2024-01-16T02:02:51;94817.91;;;-1.59;66.33
82379;BME280;72008;48.140;11.614;2024-01-16T02:03:52;94829.84;;;-1.46;65.76
82379;BME280;72008;48.140;11.614;2024-01-16T02:04:56;94825.84;;;-1.49;66.29
82379;BME280;72008;48.140;11.614;2024-01-16T02:05:57;94829.38;;;-1.53;66.65
82379;BME280;72008;48.140;11.614;2024-01-16T02:06:58;94825.69;;;-1.33;65.95
82379;BME280;72008;48.140;11.614;2024-01-16T02:07:58;94830.00;;;-1.32;66.17
82379;BME280;72008;48.140;11.614;2024-01-16T02:09:00;94828.50;;;-1.20;65.99
82379;BME280;72008;48.140;11.614;2024-01-16T02:10:01;94828.25;;;-1.18;65.71
82379;BME280;72008;48.140;11.614;2024-01-16T02:11:01;94828.72;;;-1.40;65.11
82379;BME280;72008;48.140;11.614;2024-01-16T02:12:02;94824.63;;;-1.32;65.44
82379;BME280;72008;48.140;11.614;2024-01-16T02:13:02;94837.84;;;-1.41;65.80
82379;BME280;72008;48.140;11.614;2024-01-16T02:14:03;94835.75;;;-1.20;65.80
82379;BME280;72008;48.140;11.614;2024-01-16T02:15:03;94828.56;;;-1.54;65.35
82379;BME280;72008;48.140;11.614;2024-01-16T02:16:04;94827.53;;;-1.58;66.31
82379;BME280;72008;48.140;11.614;2024-01-16T02:17:04;94835.44;;;-1.43;66.06
82379;BME280;72008;48.140;11.614;2024-01-16T02:18:05;94834.22;;;-1.26;66.11
82379;BME280;72008;48.140;11.614;2024-01-16T02:19:06;94836.50;;;-1.39;65.89
82379;BME280;72008;48.140;11.614;2024-01-16T02:20:07;94827.19;;;-1.22;65.44
82379;BME280;72008;48.140;11.614;2024-01-16T02:21:08;94841.28;;;-1.35;65.44
82379;BME280;72008;48.140;11.614;2024-01-16T02:22:16;94841.78;;;-1.33;65.24
82379;BME280;72008;48.140;11.614;2024-01-16T02:23:28;94831.69;;;-1.42;66.45
82379;BME280;72008;48.140;11.614;2024-01-16T02:24:29;94837.75;;;-1.31;66.02
82379;BME280;72008;48.140;11.614;2024-01-16T02:25:30;94840.34;;;-1.21;66.20
82379;BME280;72008;48.140;11.614;2024-01-16T02:26:31;94843.91;;;-1.30;65.47
82379;BME280;72008;48.140;11.614;2024-01-16T02:27:31;94830.47;;;-1.30;65.49
82379;BME280;72008;48.140;11.614;2024-01-16T02:28:32;94838.03;;;-1.62;65.05
82379;BME280;72008;48.140;11.614;2024-01-16T02:29:32;94832.34;;;-1.55;65.85
82379;BME280;72008;48.140;11.614;2024-01-16T02:30:33;94829.69;;;-1.60;65.84
82379;BME280;72008;48.140;11.614;2024-01-16T02:31:34;94836.81;;;-1.45;66.07
82379;BME280;72008;48.140;11.614;2024-01-16T02:32:34;94828.94;;;-1.37;65.60
82379;BME280;72008;48.140;11.614;2024-01-16T02:33:34;94830.22;;;-1.29;64.89
82379;BME280;72008;48.140;11.614;2024-01-16T02:34:35;94843.34;;;-1.27;64.97
82379;BME280;72008;48.140;11.614;2024-01-16T02:35:35;94835.50;;;-1.48;65.74
82379;BME280;72008;48.140;11.614;2024-01-16T02:36:36;94838.88;;;-1.37;65.69
82379;BME280;72008;48.140;11.614;2024-01-16T02:37:37;94835.81;;;-1.54;65.16
82379;BME280;72008;48.140;11.614;2024-01-16T02:38:37;94838.84;;;-1.61;65.41
82379;BME280;72008;48.140;11.614;2024-01-16T02:39:38;94840.81;;;-1.43;65.14
82379;BME280;72008;48.140;11.614;2024-01-16T02:40:38;94835.25;;;-1.22;64.55
82379;BME280;72008;48.140;11.614;2024-01-16T02:41:38;94837.41;;;-1.24;64.98
82379;BME280;72008;48.140;11.614;2024-01-16T02:42:39;94846.03;;;-1.27;64.60
82379;BME280;72008;48.140;11.614;2024-01-16T02:43:39;94850.81;;;-1.24;65.04
82379;BME280;72008;48.140;11.614;2024-01-16T02:44:40;94840.81;;;-1.43;65.54
82379;BME280;72008;48.140;11.614;2024-01-16T02:45:40;94843.13;;;-1.31;64.82
82379;BME280;72008;48.140;11.614;2024-01-16T02:46:41;94845.19;;;-1.52;65.63
82379;BME280;72008;48.140;11.614;2024-01-16T02:47:41;94849.13;;;-1.73;65.05
82379;BME280;72008;48.140;11.614;2024-01-16T02:48:41;94843.81;;;-1.78;65.33
82379;BME280;72008;48.140;11.614;2024-01-16T02:49:42;94854.16;;;-1.67;65.27
82379;BME280;72008;48.140;11.614;2024-01-16T02:50:42;94849.94;;;-1.73;65.50
82379;BME280;72008;48.140;11.614;2024-01-16T02:51:43;94841.19;;;-1.54;65.57
82379;BME280;72008;48.140;11.614;2024-01-16T02:52:43;94847.91;;;-1.57;65.59
82379;BME280;72008;48.140;11.614;2024-01-16T02:53:45;94847.66;;;-1.55;65.28
82379;BME280;72008;48.140;11.614;2024-01-16T02:54:45;94844.72;;;-1.59;65.08
82379;BME280;72008;48.140;11.614;2024-01-16T02:55:46;94843.75;;;-1.68;65.88
82379;BME280;72008;48.140;11.614;2024-01-16T02:56:46;94839.25;;;-1.49;64.90
82379;BME280;72008;48.140;11.614;2024-01-16T02:57:47;94846.63;;;-1.59;65.74
82379;BME280;72008;48.140;11.614;2024-01-16T02:58:47;94843.44;;;-1.38;65.16
82379;BME280;72008;48.140;11.614;2024-01-16T02:59:48;94837.50;;;-1.34;65.19
82379;BME280;72008;48.140;11.614;2024-01-16T03:00:48;94838.88;;;-1.37;64.60
82379;BME280;72008;48.140;11.614;2024-01-16T03:01:48;94841.78;;;-1.33;65.05
82379;BME280;72008;48.140;11.614;2024-01-16T03:02:49;94831.41;;;-1.40;64.97
82379;BME280;72008;48.140;11.614;2024-01-16T03:03:49;94843.50;;;-1.43;65.25
82379;BME280;72008;48.140;11.614;2024-01-16T03:04:50;94847.72;;;-1.66;65.54
82379;BME280;72008;48.140;11.614;2024-01-16T03:05:50;94843.63;;;-1.58;65.27
82379;BME280;72008;48.140;11.614;2024-01-16T03:06:50;94851.31;;;-1.46;64.95
82379;BME280;72008;48.140;11.614;2024-01-16T03:07:51;94846.88;;;-1.61;65.10
82379;BME280;72008;48.140;11.614;2024-01-16T03:08:52;94850.22;;;-1.74;65.56
82379;BME280;72008;48.140;11.614;2024-01-16T03:09:52;94844.41;;;-1.87;66.27
82379;BME280;72008;48.140;11.614;2024-01-16T03:10:52;94845.69;;;-1.79;66.27
82379;BME280;72008;48.140;11.614;2024-01-16T03:11:53;94837.56;;;-2.03;65.42
82379;BME280;72008;48.140;11.614;2024-01-16T03:12:53;94850.81;;;-1.83;65.58
82379;BME280;72008;48.140;11.614;2024-01-16T03:13:54;94844.41;;;-1.87;65.51
82379;BME280;72008;48.140;11.614;2024-01-16T03:14:54;94841.91;;;-1.78;65.14
82379;BME280;72008;48.140;11.614;2024-01-16T03:15:54;94849.13;;;-1.73;65.72
82379;BME280;72008;48.140;11.614;2024-01-16T03:16:55;94856.97;;;-1.82;65.22
82379;BME280;72008;48.140;11.614;2024-01-16T03:17:55;94852.97;;;-1.85;64.93
82379;BME280;72008;48.140;11.614;2024-01-16T03:18:56;94853.97;;;-1.75;64.88
82379;BME280;72008;48.140;11.614;2024-01-16T03:19:56;94851.31;;;-1.80;65.64
82379;BME280;72008;48.140;11.614;2024-01-16T03:20:58;94849.41;;;-1.75;64.98
82379;BME280;72008;48.140;11.614;2024-01-16T03:22:00;94850.69;;;-1.67;65.28
82379;BME280;72008;48.140;11.614;2024-01-16T03:23:00;94848.78;;;-1.62;65.13
82379;BME280;72008;48.140;11.614;2024-01-16T03:24:01;94861.13;;;-1.66;65.08
82379;BME280;72008;48.140;11.614;2024-01-16T03:25:01;94856.75;;;-1.86;65.38
82379;BME280;72008;48.140;11.614;2024-01-16T03:26:14;94850.06;;;-1.88;65.56
82379;BME280;72008;48.140;11.614;2024-01-16T03:27:14;94855.19;;;-1.92;65.12
82379;BME280;72008;48.140;11.614;2024-01-16T03:28:15;94847.19;;;-2.02;66.07
82379;BME280;72008;48.140;11.614;2024-01-16T03:29:15;94855.63;;;-1.79;64.65
82379;BME280;72008;48.140;11.614;2024-01-16T03:30:16;94853.94;;;-1.70;64.82
82379;BME280;72008;48.140;11.614;2024-01-16T03:31:16;94864.94;;;-1.72;65.05
82379;BME280;72008;48.140;11.614;2024-01-16T03:32:16;94860.81;;;-1.93;64.78
82379;BME280;72008;48.140;11.614;2024-01-16T03:33:17;94860.13;;;-1.75;64.73
82379;BME280;72008;48.140;11.614;2024-01-16T03:34:17;94862.63;;;-1.84;65.15
82379;BME280;72008;48.140;11.614;2024-01-16T03:35:18;94864.25;;;-1.83;65.09
82379;BME280;72008;48.140;11.614;2024-01-16T03:36:18;94877.84;;;-1.74;65.01
82379;BME280;72008;48.140;11.614;2024-01-16T03:37:19;94870.88;;;-1.75;65.46
82379;BME280;72008;48.140;11.614;2024-01-16T03:38:19;94860.59;;;-1.63;65.14
82379;BME280;72008;48.140;11.614;2024-01-16T03:39:19;94862.38;;;-1.53;65.22
82379;BME280;72008;48.140;11.614;2024-01-16T03:40:20;94868.59;;;-1.57;64.50
82379;BME280;72008;48.140;11.614;2024-01-16T03:41:20;94863.34;;;-1.73;64.86
82379;BME280;72008;48.140;11.614;2024-01-16T03:42:21;94866.56;;;-1.71;65.15
82379;BME280;72008;48.140;11.614;2024-01-16T03:43:21;94858.66;;;-1.91;64.63
82379;BME280;72008;48.140;11.614;2024-01-16T03:44:22;94860.25;;;-1.90;65.12
82379;BME280;72008;48.140;11.614;2024-01-16T03:45:22;94866.28;;;-2.09;65.07
82379;BME280;72008;48.140;11.614;2024-01-16T03:46:22;94858.03;;;-2.17;65.11
82379;BME280;72008;48.140;11.614;2024-01-16T03:47:23;94859.19;;;-1.89;65.34
82379;BME280;72008;48.140;11.614;2024-01-16T03:48:23;94860.06;;;-1.99;65.12
82379;BME280;72008;48.140;11.614;2024-01-16T03:49:24;94856.16;;;-1.77;65.29
82379;BME280;72008;48.140;11.614;2024-01-16T03:50:24;94848.53;;;-1.65;64.70
82379;BME280;72008;48.140;11.614;2024-01-16T03:51:25;94855.84;;;-1.71;64.65
82379;BME280;72008;48.140;11.614;2024-01-16T03:52:40;94858.00;;;-1.78;65.08
82379;BME280;72008;48.140;11.614;2024-01-16T03:53:41;94854.06;;;-1.86;65.16
82379;BME280;72008;48.140;11.614;2024-01-16T03:54:42;94857.81;;;-1.87;64.27
82379;BME280;72008;48.140;11.614;2024-01-16T03:55:42;94858.47;;;-2.00;65.04
82379;BME280;72008;48.140;11.614;2024-01-16T03:56:42;94849.88;;;-2.02;65.90
82379;BME280;72008;48.140;11.614;2024-01-16T03:57:43;94853.00;;;-1.90;65.37
82379;BME280;72008;48.140;11.614;2024-01-16T03:58:43;94856.09;;;-1.72;64.90
82379;BME280;72008;48.140;11.614;2024-01-16T03:59:44;94856.16;;;-1.77;65.11
82379;BME280;72008;48.140;11.614;2024-01-16T04:00:44;94856.22;;;-1.88;65.60
82379;BME280;72008;48.140;11.614;2024-01-16T04:01:45;94852.97;;;-1.85;65.29
82379;BME280;72008;48.140;11.614;2024-01-16T04:02:45;94862.69;;;-1.94;64.84
82379;BME280;72008;48.140;11.614;2024-01-16T04:03:45;94848.38;;;-1.79;64.46
82379;BME280;72008;48.140;11.614;2024-01-16T04:04:46;94853.94;;;-1.70;64.71
82379;BME280;72008;48.140;11.614;2024-01-16T04:05:46;94847.44;;;-1.64;64.64
82379;BME280;72008;48.140;11.614;2024-01-16T04:06:47;94850.69;;;-1.67;65.46
82379;BME280;72008;48.140;11.614;2024-01-16T04:07:47;94843.09;;;-1.60;64.72
82379;BME280;72008;48.140;11.614;2024-01-16T04:08:48;94854.88;;;-1.51;64.64
82379;BME280;72008;48.140;11.614;2024-01-16T04:09:48;94853.75;;;-1.79;64.68
82379;BME280;72008;48.140;11.614;2024-01-16T04:10:48;94853.75;;;-1.79;64.94
82379;BME280;72008;48.140;11.614;2024-01-16T04:11:51;94849.16;;;-1.78;64.92
82379;BME280;72008;48.140;11.614;2024-01-16T04:12:52;94849.75;;;-1.87;65.64
82379;BME280;72008;48.140;11.614;2024-01-16T04:13:52;94854.50;;;-1.73;65.08
82379;BME280;72008;48.140;11.614;2024-01-16T04:14:53;94853.00;;;-1.90;65.66
82379;BME280;72008;48.140;11.614;2024-01-16T04:15:53;94856.59;;;-1.65;65.30
82379;BME280;72008;48.140;11.614;2024-01-16T04:16:53;94857.50;;;-1.80;64.95
82379;BME280;72008;48.140;11.614;2024-01-16T04:17:54;94855.41;;;-1.88;65.53
82379;BME280;72008;48.140;11.614;2024-01-16T04:18:54;94848.03;;;-1.72;65.34
82379;BME280;72008;48.140;11.614;2024-01-16T04:19:55;94850.47;;;-1.71;64.83
82379;BME280;72008;48.140;11.614;2024-01-16T04:20:55;94845.44;;;-1.77;64.96
82379;BME280;72008;48.140;11.614;2024-01-16T04:21:56;94861.47;;;-1.72;65.17
82379;BME280;72008;48.140;11.614;2024-01-16T04:22:56;94851.59;;;-1.77;65.85
82379;BME280;72008;48.140;11.614;2024-01-16T04:23:57;94857.56;;;-1.90;65.33
82379;BME280;72008;48.140;11.614;2024-01-16T04:24:57;94849.31;;;-1.99;65.09
82379;BME280;72008;48.140;11.614;2024-01-16T04:25:58;94849.81;;;-1.92;65.25
82379;BME280;72008;48.140;11.614;2024-01-16T04:26:58;94851.63;;;-1.82;65.20
82379;BME280;72008;48.140;11.614;2024-01-16T04:27:59;94854.09;;;-1.91;65.01
82379;BME280;72008;48.140;11.614;2024-01-16T04:28:59;94857.81;;;-1.87;65.75
82379;BME280;72008;48.140;11.614;2024-01-16T04:29:59;94845.66;;;-1.74;65.77
82379;BME280;72008;48.140;11.614;2024-01-16T04:31:00;94839.41;;;-1.64;64.77
82379;BME280;72008;48.140;11.614;2024-01-16T04:32:01;94842.69;;;-1.72;64.75
82379;BME280;72008;48.140;11.614;2024-01-16T04:33:01;94847.06;;;-1.81;64.54
82379;BME280;72008;48.140;11.614;2024-01-16T04:34:02;94843.34;;;-1.86;65.17
82379;BME280;72008;48.140;11.614;2024-01-16T04:35:02;94848.84;;;-1.72;64.75
82379;BME280;72008;48.140;11.614;2024-01-16T04:36:03;94846.72;;;-1.75;64.98
82379;BME280;72008;48.140;11.614;2024-01-16T04:37:03;94851.25;;;-1.70;64.38
82379;BME280;72008;48.140;11.614;2024-01-16T04:38:04;94842.75;;;-1.77;64.78
82379;BME280;72008;48.140;11.614;2024-01-16T04:39:04;94845.16;;;-1.81;65.13
82379;BME280;72008;48.140;11.614;2024-01-16T04:40:05;94845.16;;;-1.81;64.52
82379;BME280;72008;48.140;11.614;2024-01-16T04:41:05;94846.25;;;-1.82;65.40
82379;BME280;72008;48.140;11.614;2024-01-16T04:42:06;94845.22;;;-1.86;64.74
82379;BME280;72008;48.140;11.614;2024-01-16T04:43:06;94843.34;;;-1.86;64.73
82379;BME280;72008;48.140;11.614;2024-01-16T04:44:07;94841.41;;;-1.80;65.26
82379;BME280;72008;48.140;11.614;2024-01-16T04:45:07;94839.41;;;-1.64;64.98
82379;BME280;72008;48.140;11.614;2024-01-16T04:46:08;94837.69;;;-1.55;65.16
82379;BME280;72008;48.140;11.614;2024-01-16T04:47:08;94839.06;;;-1.57;64.13
82379;BME280;72008;48.140;11.614;2024-01-16T04:48:08;94837.25;;;-1.62;64.15
82379;BME280;72008;48.140;11.614;2024-01-16T04:49:09;94829.13;;;-1.57;65.30
82379;BME280;72008;48.140;11.614;2024-01-16T04:50:09;94837.06;;;-1.42;64.06
82379;BME280;72008;48.140;11.614;2024-01-16T04:51:10;94835.06;;;-1.60;64.65
82379;BME280;72008;48.140;11.614;2024-01-16T04:52:10;94832.91;;;-1.58;64.38
82379;BME280;72008;48.140;11.614;2024-01-16T04:53:11;94832.47;;;-1.70;64.34
82379;BME280;72008;48.140;11.614;2024-01-16T04:54:12;94836.28;;;-1.76;65.06
82379;BME280;72008;48.140;11.614;2024-01-16T04:55:12;94833.56;;;-1.71;65.13
82379;BME280;72008;48.140;11.614;2024-01-16T04:56:13;94834.03;;;-1.64;64.15
82379;BME280;72008;48.140;11.614;2024-01-16T04:57:13;94842.13;;;-1.69;65.20
82379;BME280;72008;48.140;11.614;2024-01-16T04:58:13;94835.13;;;-1.65;64.79
82379;BME280;72008;48.140;11.614;2024-01-16T04:59:14;94833.19;;;-1.59;64.87
82379;BME280;72008;48.140;11.614;2024-01-16T05:00:14;94833.47;;;-1.61;64.52
82379;BME280;72008;48.140;11.614;2024-01-16T05:01:15;94832.59;;;-1.86;64.75
82379;BME280;72008;48.140;11.614;2024-01-16T05:02:15;94831.53;;;-1.85;65.62
82379;BME280;72008;48.140;11.614;2024-01-16T05:03:16;94834.88;;;-1.69;64.88
82379;BME280;72008;48.140;11.614;2024-01-16T05:04:16;94827.13;;;-1.70;64.83
82379;BME280;72008;48.140;11.614;2024-01-16T05:05:17;94842.03;;;-1.59;65.15
82379;BME280;72008;48.140;11.614;2024-01-16T05:06:17;94840.72;;;-1.62;64.67
82379;BME280;72008;48.140;11.614;2024-01-16T05:07:18;94834.44;;;-1.52;64.00
82379;BME280;72008;48.140;11.614;2024-01-16T05:08:18;94837.56;;;-1.40;64.11
82379;BME280;72008;48.140;11.614;2024-01-16T05:09:19;94835.97;;;-1.41;64.37
82379;BME280;72008;48.140;11.614;2024-01-16T05:10:19;94840.25;;;-1.40;64.29
82379;BME280;72008;48.140;11.614;2024-01-16T05:11:20;94842.50;;;-1.52;64.34
82379;BME280;72008;48.140;11.614;2024-01-16T05:12:20;94840.53;;;-1.70;64.60
82379;BME280;72008;48.140;11.614;2024-01-16T05:13:20;94839.59;;;-1.55;64.16
82379;BME280;72008;48.140;11.614;2024-01-16T05:14:21;94840.44;;;-1.60;64.40
82379;BME280;72008;48.140;11.614;2024-01-16T05:15:21;94846.81;;;-1.51;65.50
82379;BME280;72008;48.140;11.614;2024-01-16T05:16:22;94839.94;;;-1.62;64.01
82379;BME280;72008;48.140;11.614;2024-01-16T05:17:22;94838.88;;;-1.66;65.11
82379;BME280;72008;48.140;11.614;2024-01-16T05:18:22;94844.16;;;-1.56;64.64